Time;durP1;ratioP1;P1;durP2;ratioP2;P2;SDS_P1;SDS_P2;PMS_P1;PMS_P2;Temp;Humidity;BMP_temperature;BMP_pressure;BME280_temperature;BME280_humidity;BME280_pressure;Samples;Min_cycle;Max_cycle;Signal;HPM_P1;HPM_P2
2021/06/28 00:01:01;;;;;;;8.13;7.33;;;20.70;1.00;;;;;;5075082;28;20463;-76
2021/06/28 00:03:28;;;;;;;9.67;7.43;;;20.60;1.00;;;;;;5068711;28;20534;-75
2021/06/28 00:05:55;;;;;;;8.30;7.50;;;20.60;1.00;;;;;;5076395;28;20483;-76
2021/06/28 00:08:21;;;;;;;8.03;7.43;;;20.60;1.00;;;;;;5069629;28;20546;-75
2021/06/28 00:10:48;;;;;;;7.63;6.87;;;20.60;1.00;;;;;;5073475;28;20448;-75
2021/06/28 00:13:16;;;;;;;7.67;6.97;;;20.50;1.00;;;;;;5068875;28;20466;-77
2021/06/28 00:15:43;;;;;;;8.17;7.40;;;20.40;1.00;;;;;;5069161;28;20509;-75
2021/06/28 00:18:11;;;;;;;8.27;7.47;;;20.40;1.00;;;;;;5065870;28;20447;-76
2021/06/28 00:20:38;;;;;;;8.10;7.37;;;20.30;1.00;;;;;;5068208;28;20450;-75
2021/06/28 00:23:05;;;;;;;7.70;7.10;;;20.30;1.00;;;;;;5071399;28;20458;-77
2021/06/28 00:25:32;;;;;;;10.97;7.50;;;20.30;1.00;;;;;;5063431;28;21036;-77
2021/06/28 00:27:59;;;;;;;7.73;7.10;;;20.20;1.00;;;;;;5068654;28;20527;-76
2021/06/28 00:30:29;;;;;;;9.23;7.77;;;20.20;1.00;;;;;;5063411;28;20461;-76
2021/06/28 00:32:56;;;;;;;8.80;7.97;;;20.10;1.00;;;;;;5073081;28;20493;-76
2021/06/28 00:35:23;;;;;;;7.23;6.70;;;20.10;1.00;;;;;;5063817;28;20506;-76
2021/06/28 00:37:50;;;;;;;9.00;8.17;;;20.10;1.00;;;;;;5072749;28;20448;-76
2021/06/28 00:40:19;;;;;;;8.30;7.50;;;20.10;1.00;;;;;;5061797;28;20460;-76
2021/06/28 00:42:46;;;;;;;8.20;7.37;;;20.10;1.00;;;;;;5073963;28;20963;-76
2021/06/28 00:45:18;;;;;;;8.93;8.20;;;20.00;1.00;;;;;;5053624;28;20438;-77
2021/06/28 00:47:46;;;;;;;7.97;7.33;;;20.00;1.00;;;;;;5069561;28;20454;-77
2021/06/28 00:50:14;;;;;;;10.20;9.30;;;20.00;1.00;;;;;;5065406;28;20461;-75
2021/06/28 00:52:41;;;;;;;8.30;7.50;;;19.90;1.00;;;;;;5062123;28;20587;-76
2021/06/28 00:55:10;;;;;;;9.60;7.90;;;19.90;1.00;;;;;;5063879;28;20455;-75
2021/06/28 00:57:37;;;;;;;7.20;6.60;;;19.80;1.00;;;;;;5063918;28;20961;-76
2021/06/28 01:00:07;;;;;;;7.70;7.00;;;19.80;1.00;;;;;;5069930;28;20456;-76
2021/06/28 01:02:34;;;;;;;9.20;8.43;;;19.80;1.00;;;;;;5061893;28;20447;-77
2021/06/28 01:05:04;;;;;;;8.77;8.07;;;19.80;1.00;;;;;;5062962;28;20486;-76
2021/06/28 01:07:31;;;;;;;8.40;7.70;;;19.80;1.00;;;;;;5064858;28;20450;-76
2021/06/28 01:09:58;;;;;;;8.27;7.50;;;19.80;1.00;;;;;;5063761;28;21226;-76
2021/06/28 01:12:25;;;;;;;8.87;7.97;;;19.70;1.00;;;;;;5061612;28;20582;-76
2021/06/28 01:14:52;;;;;;;7.60;7.00;;;19.70;1.00;;;;;;5060585;28;20464;-76
2021/06/28 01:17:18;;;;;;;8.03;7.33;;;19.70;1.00;;;;;;5062359;28;20465;-76
2021/06/28 01:19:53;;;;;;;9.63;8.70;;;19.70;1.00;;;;;;5065395;28;22461;-76
2021/06/28 01:22:25;;;;;;;8.00;7.30;;;19.70;1.00;;;;;;5067881;28;20448;-76
2021/06/28 01:24:55;;;;;;;8.37;7.57;;;19.70;1.00;;;;;;5067242;28;20446;-76
2021/06/28 01:27:22;;;;;;;8.40;7.70;;;19.70;1.00;;;;;;5070481;28;20458;-76
2021/06/28 01:29:49;;;;;;;8.43;7.60;;;19.60;1.00;;;;;;5066213;28;21229;-76
2021/06/28 01:32:15;;;;;;;8.57;7.87;;;19.60;1.00;;;;;;5070308;28;20916;-76
2021/06/28 01:34:42;;;;;;;9.03;8.20;;;19.60;1.00;;;;;;5061967;28;20538;-76
2021/06/28 01:37:13;;;;;;;7.87;7.23;;;19.50;1.00;;;;;;5070941;28;20435;-76
2021/06/28 01:39:40;;;;;;;8.17;7.37;;;19.50;1.00;;;;;;5060454;28;20536;-75
2021/06/28 01:42:09;;;;;;;8.07;7.33;;;19.50;1.00;;;;;;5072098;28;21032;-75
2021/06/28 01:44:35;;;;;;;9.07;8.30;;;19.50;1.00;;;;;;5061807;28;20456;-76
2021/06/28 01:47:02;;;;;;;8.77;7.87;;;19.40;1.00;;;;;;5066186;28;21833;-75
2021/06/28 01:49:30;;;;;;;8.27;7.57;;;19.50;1.00;;;;;;5063331;28;21017;-75
2021/06/28 01:51:57;;;;;;;7.10;6.40;;;19.50;1.00;;;;;;5064055;28;20504;-76
2021/06/28 01:54:23;;;;;;;9.40;8.00;;;19.50;1.00;;;;;;5074655;28;20973;-76
2021/06/28 01:56:50;;;;;;;9.17;8.37;;;19.50;1.00;;;;;;5071390;28;20455;-76
2021/06/28 01:59:18;;;;;;;9.50;8.70;;;19.50;1.00;;;;;;5070635;28;20467;-76
2021/06/28 02:01:44;;;;;;;9.47;8.67;;;19.50;1.00;;;;;;5073091;28;21002;-76
2021/06/28 02:04:17;;;;;;;10.20;9.30;;;19.50;1.00;;;;;;5074829;28;20446;-76
2021/06/28 02:06:44;;;;;;;9.73;8.20;;;19.50;1.00;;;;;;5070449;28;20459;-75
2021/06/28 02:09:10;;;;;;;8.67;7.90;;;19.40;1.00;;;;;;5072780;28;20449;-76
2021/06/28 02:11:37;;;;;;;8.77;7.97;;;19.40;1.00;;;;;;5060242;28;20452;-76
2021/06/28 02:14:04;;;;;;;8.97;8.27;;;19.40;1.00;;;;;;5074452;28;20459;-76
2021/06/28 02:16:32;;;;;;;8.50;7.70;;;19.40;1.00;;;;;;5060053;28;20909;-76
2021/06/28 02:18:59;;;;;;;9.43;8.63;;;19.30;1.00;;;;;;5072720;28;20459;-76
2021/06/28 02:21:25;;;;;;;9.60;8.80;;;19.30;1.00;;;;;;5061457;28;20562;-76
2021/06/28 02:23:52;;;;;;;9.07;8.30;;;19.30;1.00;;;;;;5069908;28;20443;-76
2021/06/28 02:26:19;;;;;;;10.50;9.00;;;19.30;1.00;;;;;;5067314;28;20450;-76
2021/06/28 02:28:48;;;;;;;9.63;8.63;;;19.20;1.00;;;;;;5068483;28;20444;-76
2021/06/28 02:31:17;;;;;;;9.40;8.60;;;19.20;1.00;;;;;;5060907;28;20529;-75
2021/06/28 02:33:46;;;;;;;10.27;7.83;;;19.20;1.00;;;;;;5061542;28;20486;-76
2021/06/28 02:36:13;;;;;;;9.50;8.70;;;19.20;1.00;;;;;;5071069;28;20962;-76
2021/06/28 02:38:42;;;;;;;9.80;8.90;;;19.20;1.00;;;;;;5058997;28;20459;-76
2021/06/28 02:41:10;;;;;;;13.20;11.97;;;19.20;1.00;;;;;;5079629;28;20467;-76
2021/06/28 02:43:37;;;;;;;10.40;9.40;;;19.10;1.00;;;;;;5074794;28;20424;-76
2021/06/28 02:46:04;;;;;;;9.63;8.77;;;19.10;1.00;;;;;;5069910;28;20446;-76
2021/06/28 02:48:31;;;;;;;9.67;8.63;;;19.10;1.00;;;;;;5059676;28;20452;-76
2021/06/28 02:50:59;;;;;;;9.77;8.90;;;19.10;1.00;;;;;;5068509;28;22198;-76
2021/06/28 02:53:25;;;;;;;11.77;10.57;;;19.10;1.00;;;;;;5062027;28;20469;-76
2021/06/28 02:55:52;;;;;;;9.23;8.37;;;19.10;1.00;;;;;;5062827;28;20463;-76
2021/06/28 02:58:20;;;;;;;10.50;9.20;;;19.10;1.00;;;;;;5061602;28;20484;-76
2021/06/28 03:00:47;;;;;;;9.77;8.77;;;19.00;1.00;;;;;;5061984;28;20477;-76
2021/06/28 03:03:14;;;;;;;9.83;9.03;;;19.00;1.00;;;;;;5060519;28;21042;-76
2021/06/28 03:05:41;;;;;;;9.73;8.90;;;19.00;1.00;;;;;;5057942;28;20497;-76
2021/06/28 03:08:09;;;;;;;10.77;9.83;;;19.00;1.00;;;;;;5065346;28;20526;-76
2021/06/28 03:10:36;;;;;;;11.03;10.10;;;19.00;1.00;;;;;;5062340;28;20540;-76
2021/06/28 03:13:04;;;;;;;10.03;9.07;;;19.00;1.00;;;;;;5068692;28;20440;-76
2021/06/28 03:15:31;;;;;;;10.10;9.20;;;19.00;1.00;;;;;;5060258;28;21022;-76
2021/06/28 03:17:57;;;;;;;9.90;9.00;;;19.00;1.00;;;;;;5071723;28;20466;-76
2021/06/28 03:20:24;;;;;;;10.13;9.27;;;19.00;1.00;;;;;;5061401;28;20499;-76
2021/06/28 03:22:52;;;;;;;9.57;8.77;;;18.90;1.00;;;;;;5067045;28;20437;-76
2021/06/28 03:25:20;;;;;;;10.27;9.37;;;18.90;1.00;;;;;;5060275;28;20454;-75
2021/06/28 03:27:46;;;;;;;13.17;9.33;;;19.00;1.00;;;;;;5065415;28;20536;-75
2021/06/28 03:30:15;;;;;;;11.20;9.40;;;18.90;1.00;;;;;;5059356;28;20459;-75
2021/06/28 03:32:43;;;;;;;10.43;9.43;;;18.90;1.00;;;;;;5063940;28;20415;-75
2021/06/28 03:35:11;;;;;;;10.80;9.90;;;18.90;1.00;;;;;;5069081;28;20434;-76
2021/06/28 03:37:39;;;;;;;15.53;14.23;;;18.90;1.00;;;;;;5062390;28;20470;-75
2021/06/28 03:40:07;;;;;;;10.63;9.63;;;18.80;1.00;;;;;;5067292;28;20463;-76
2021/06/28 03:42:35;;;;;;;10.50;9.47;;;18.80;1.00;;;;;;5059686;28;20435;-77
2021/06/28 03:45:02;;;;;;;16.93;10.93;;;18.80;1.00;;;;;;5067956;28;20536;-76
2021/06/28 03:47:28;;;;;;;13.23;9.00;;;18.80;1.00;;;;;;5065807;28;20448;-76
2021/06/28 03:49:55;;;;;;;12.50;9.37;;;18.80;1.00;;;;;;5064906;28;20455;-75
2021/06/28 03:52:21;;;;;;;10.67;9.63;;;18.80;1.00;;;;;;5058367;28;20488;-75
2021/06/28 03:54:48;;;;;;;13.27;10.10;;;18.80;1.00;;;;;;5069975;28;20469;-75
2021/06/28 03:57:15;;;;;;;10.37;9.37;;;18.90;1.00;;;;;;5064110;28;20842;-76
2021/06/28 03:59:43;;;;;;;11.40;10.30;;;18.90;1.00;;;;;;5067465;28;21275;-76
2021/06/28 04:02:09;;;;;;;23.23;11.90;;;19.00;1.00;;;;;;5073555;28;21001;-76
2021/06/28 04:04:36;;;;;;;15.90;10.07;;;19.00;1.00;;;;;;5064021;28;20444;-76
2021/06/28 04:07:03;;;;;;;10.23;9.33;;;19.10;1.00;;;;;;5060941;28;20459;-75
2021/06/28 04:09:30;;;;;;;15.20;9.77;;;19.10;1.00;;;;;;5060726;28;20634;-76
2021/06/28 04:11:56;;;;;;;10.70;9.60;;;19.10;1.00;;;;;;5067244;28;20439;-76
2021/06/28 04:14:23;;;;;;;14.30;10.23;;;19.20;1.00;;;;;;5059344;28;20589;-76
2021/06/28 04:16:51;;;;;;;14.10;10.80;;;19.20;1.00;;;;;;5065523;28;20460;-75
2021/06/28 04:19:18;;;;;;;17.10;10.93;;;19.20;1.00;;;;;;5066507;28;20463;-77
2021/06/28 04:21:44;;;;;;;10.40;9.20;;;19.20;1.00;;;;;;5064515;28;20431;-75
2021/06/28 04:24:11;;;;;;;10.13;9.13;;;19.20;1.00;;;;;;5056489;28;20445;-76
2021/06/28 04:26:38;;;;;;;11.93;10.23;;;19.30;1.00;;;;;;5070129;28;20462;-75
2021/06/28 04:29:05;;;;;;;11.37;10.37;;;19.30;1.00;;;;;;5058669;28;20765;-75
2021/06/28 04:31:32;;;;;;;12.93;10.73;;;19.40;1.00;;;;;;5066022;28;20444;-76
2021/06/28 04:34:00;;;;;;;13.33;10.73;;;19.40;1.00;;;;;;5059574;28;20479;-76
2021/06/28 04:36:26;;;;;;;10.20;9.30;;;19.50;1.00;;;;;;5063379;28;20459;-76
2021/06/28 04:38:53;;;;;;;10.23;9.30;;;19.50;1.00;;;;;;5067525;28;20469;-76
2021/06/28 04:41:20;;;;;;;12.37;11.27;;;19.60;1.00;;;;;;5068326;28;20997;-76
2021/06/28 04:43:46;;;;;;;11.43;10.23;;;19.70;1.00;;;;;;5069611;28;20458;-76
2021/06/28 04:46:13;;;;;;;11.67;9.73;;;19.70;1.00;;;;;;5063752;28;20481;-76
2021/06/28 04:48:40;;;;;;;11.80;10.70;;;19.80;1.00;;;;;;5073204;28;20455;-76
2021/06/28 04:51:08;;;;;;;9.73;8.80;;;19.80;1.00;;;;;;5060862;28;21097;-76
2021/06/28 04:53:34;;;;;;;10.50;9.50;;;19.90;1.00;;;;;;5074201;28;21357;-76
2021/06/28 04:56:04;;;;;;;12.23;11.07;;;19.90;1.00;;;;;;5061839;28;20463;-75
2021/06/28 04:58:30;;;;;;;11.07;9.97;;;20.10;1.00;;;;;;5065519;28;20469;-75
2021/06/28 05:00:57;;;;;;;12.90;10.83;;;20.20;1.00;;;;;;5058717;28;20467;-75
2021/06/28 05:03:24;;;;;;;10.57;9.67;;;20.20;1.00;;;;;;5069165;28;20555;-75
2021/06/28 05:05:50;;;;;;;10.03;9.13;;;20.20;1.00;;;;;;5066179;28;20440;-74
2021/06/28 05:08:18;;;;;;;10.60;9.70;;;20.30;1.00;;;;;;5072773;28;20508;-76
2021/06/28 05:10:45;;;;;;;10.10;9.20;;;20.40;1.00;;;;;;5061819;28;20876;-75
2021/06/28 05:13:11;;;;;;;9.60;8.50;;;20.50;1.00;;;;;;5065000;28;20464;-75
2021/06/28 05:15:38;;;;;;;12.00;10.70;;;20.60;1.00;;;;;;5064647;28;21653;-76
2021/06/28 05:18:05;;;;;;;10.93;9.93;;;20.70;1.00;;;;;;5063996;28;20592;-75
2021/06/28 05:20:31;;;;;;;9.93;8.97;;;20.80;1.00;;;;;;5068632;28;21147;-74
2021/06/28 05:22:58;;;;;;;12.73;11.70;;;20.90;1.00;;;;;;5069188;28;20483;-75
2021/06/28 05:25:26;;;;;;;8.23;7.63;;;21.00;1.00;;;;;;5068335;28;20463;-76
2021/06/28 05:27:53;;;;;;;8.90;7.87;;;21.00;1.00;;;;;;5063311;28;20480;-76
2021/06/28 05:30:20;;;;;;;11.70;10.60;;;21.10;1.00;;;;;;5067173;28;20461;-76
2021/06/28 05:32:47;;;;;;;10.87;9.87;;;21.20;1.00;;;;;;5060313;28;20436;-76
2021/06/28 05:35:14;;;;;;;10.17;9.27;;;21.30;1.00;;;;;;5064809;28;20458;-76
2021/06/28 05:37:41;;;;;;;10.43;8.40;;;21.30;1.00;;;;;;5072057;28;20486;-75
2021/06/28 05:40:09;;;;;;;10.23;9.30;;;21.50;1.00;;;;;;5080827;28;20515;-76
2021/06/28 05:42:39;;;;;;;10.30;9.50;;;21.70;1.00;;;;;;5063617;28;20482;-75
2021/06/28 05:45:07;;;;;;;10.07;9.27;;;21.80;1.00;;;;;;5066520;28;20456;-75
2021/06/28 05:47:34;;;;;;;9.07;8.27;;;21.80;1.00;;;;;;5063922;28;20449;-77
2021/06/28 05:50:01;;;;;;;9.30;8.40;;;21.90;1.00;;;;;;5066429;28;20439;-75
2021/06/28 05:52:27;;;;;;;8.63;7.83;;;22.00;1.00;;;;;;5069102;28;20457;-75
2021/06/28 05:54:54;;;;;;;7.87;7.17;;;22.20;1.00;;;;;;5062903;28;21616;-75
2021/06/28 05:57:24;;;;;;;10.20;8.43;;;22.30;1.00;;;;;;5065040;28;20466;-76
2021/06/28 05:59:54;;;;;;;8.17;7.47;;;22.20;1.00;;;;;;5061032;28;21380;-76
2021/06/28 06:02:20;;;;;;;9.00;8.20;;;22.20;1.00;;;;;;5078244;28;20521;-76
2021/06/28 06:04:47;;;;;;;9.60;7.93;;;22.20;1.00;;;;;;5061880;28;20451;-77
2021/06/28 06:07:14;;;;;;;10.37;9.40;;;22.30;1.00;;;;;;5067462;28;20540;-76
2021/06/28 06:09:41;;;;;;;9.33;8.57;;;22.40;1.00;;;;;;5060714;28;20459;-76
2021/06/28 06:12:09;;;;;;;8.97;8.23;;;22.40;1.00;;;;;;5070213;28;20505;-76
2021/06/28 06:14:35;;;;;;;8.80;8.00;;;22.50;1.00;;;;;;5062947;28;20497;-76
2021/06/28 06:17:04;;;;;;;9.93;8.90;;;22.50;1.00;;;;;;5066064;28;20560;-77
2021/06/28 06:19:30;;;;;;;8.30;7.60;;;22.60;1.00;;;;;;5063034;28;20466;-77
2021/06/28 06:21:57;;;;;;;12.80;8.77;;;22.70;1.00;;;;;;5064542;28;20552;-75
2021/06/28 06:24:27;;;;;;;15.87;14.20;;;22.80;1.00;;;;;;5067337;28;20447;-76
2021/06/28 06:26:56;;;;;;;9.80;8.07;;;22.90;1.00;;;;;;5061575;28;20465;-76
2021/06/28 06:29:23;;;;;;;8.77;7.83;;;23.10;1.00;;;;;;5065208;28;20439;-77
2021/06/28 06:31:50;;;;;;;9.43;8.47;;;23.20;1.00;;;;;;5061820;28;20976;-76
2021/06/28 06:34:18;;;;;;;9.10;8.20;;;23.30;1.00;;;;;;5065908;28;20572;-75
2021/06/28 06:36:44;;;;;;;11.50;8.40;;;23.40;1.00;;;;;;5060368;28;20456;-76
2021/06/28 06:39:11;;;;;;;8.63;7.67;;;23.50;1.00;;;;;;5066542;28;20449;-76
2021/06/28 06:41:38;;;;;;;9.43;8.63;;;23.60;1.00;;;;;;5062561;28;20443;-74
2021/06/28 06:44:05;;;;;;;9.13;8.23;;;23.80;1.00;;;;;;5072690;28;21400;-76
2021/06/28 06:46:32;;;;;;;11.97;8.43;;;23.90;1.00;;;;;;5063292;28;20426;-75
2021/06/28 06:48:58;;;;;;;9.10;8.30;;;24.00;1.00;;;;;;5067682;28;20439;-76
2021/06/28 06:51:29;;;;;;;9.93;8.90;;;24.10;1.00;;;;;;5068555;28;20467;-77
2021/06/28 06:53:55;;;;;;;9.03;8.23;;;24.20;1.00;;;;;;5065173;28;20474;-77
2021/06/28 06:56:22;;;;;;;10.30;8.20;;;24.30;1.00;;;;;;5069433;28;20450;-75
2021/06/28 06:58:49;;;;;;;10.27;8.20;;;24.40;1.00;;;;;;5059228;28;20621;-76
2021/06/28 07:01:17;;;;;;;9.33;8.53;;;24.50;1.00;;;;;;5066680;28;21000;-76
2021/06/28 07:03:43;;;;;;;11.57;9.33;;;24.70;1.00;;;;;;5062215;28;20439;-77
2021/06/28 07:06:10;;;;;;;10.73;9.83;;;24.80;1.00;;;;;;5061527;28;20459;-75
2021/06/28 07:08:38;;;;;;;9.77;8.77;;;24.80;1.00;;;;;;5067029;28;20450;-75
2021/06/28 07:11:10;;;;;;;10.30;9.30;;;24.90;1.00;;;;;;5070804;28;20579;-76
2021/06/28 07:13:38;;;;;;;10.97;9.87;;;25.00;1.00;;;;;;5062996;28;20461;-79
2021/06/28 07:16:05;;;;;;;14.57;11.63;;;25.10;1.00;;;;;;5071731;28;21216;-77
2021/06/28 07:18:32;;;;;;;11.17;9.50;;;25.20;1.00;;;;;;5061657;28;20457;-76
2021/06/28 07:20:58;;;;;;;11.50;9.27;;;25.10;1.00;;;;;;5063211;28;20467;-76
2021/06/28 07:23:25;;;;;;;10.40;9.50;;;25.20;1.00;;;;;;5060320;28;20445;-76
2021/06/28 07:25:53;;;;;;;11.23;10.23;;;25.30;1.00;;;;;;5066105;28;21223;-76
2021/06/28 07:28:20;;;;;;;11.63;10.43;;;25.40;1.00;;;;;;5063968;28;20448;-75
2021/06/28 07:30:46;;;;;;;12.23;10.70;;;25.40;1.00;;;;;;5063128;28;20532;-75
2021/06/28 07:33:13;;;;;;;10.47;9.57;;;25.60;1.00;;;;;;5067069;28;20488;-75
2021/06/28 07:35:40;;;;;;;10.77;9.60;;;25.80;1.00;;;;;;5067543;28;20472;-76
2021/06/28 07:38:06;;;;;;;11.77;10.68;;;25.90;1.00;;;;;;5069783;28;20435;-75
2021/06/28 07:40:33;;;;;;;10.30;9.50;;;26.10;1.00;;;;;;5062557;28;20237;-76
2021/06/28 07:43:01;;;;;;;10.97;9.97;;;26.20;1.00;;;;;;5064739;28;20461;-76
2021/06/28 07:45:28;;;;;;;10.47;9.63;;;26.20;1.00;;;;;;5065270;28;21230;-76
2021/06/28 07:47:54;;;;;;;9.73;8.80;;;26.20;1.00;;;;;;5065538;28;20455;-76
2021/06/28 07:50:21;;;;;;;10.13;9.00;;;26.40;1.00;;;;;;5057981;28;20451;-75
2021/06/28 07:52:48;;;;;;;8.20;7.60;;;26.50;1.00;;;;;;5063299;28;20448;-77
2021/06/28 07:55:15;;;;;;;8.40;7.77;;;26.50;1.00;;;;;;5061277;28;20486;-77
2021/06/28 07:57:42;;;;;;;8.67;7.87;;;26.70;1.00;;;;;;5064439;28;20524;-76
2021/06/28 08:00:14;;;;;;;8.10;7.40;;;26.70;1.00;;;;;;5065364;28;20439;-75
2021/06/28 08:02:41;;;;;;;8.10;7.43;;;26.70;1.00;;;;;;5062745;28;20973;-75
2021/06/28 08:05:08;;;;;;;8.17;7.47;;;26.80;1.00;;;;;;5064981;28;20467;-76
2021/06/28 08:07:35;;;;;;;8.53;7.87;;;26.90;1.00;;;;;;5063049;28;20451;-77
2021/06/28 08:10:02;;;;;;;9.53;8.60;;;27.10;1.00;;;;;;5072219;28;20448;-77
2021/06/28 08:12:29;;;;;;;8.17;7.47;;;27.30;1.00;;;;;;5065658;28;20988;-77
2021/06/28 08:14:56;;;;;;;7.90;7.30;;;27.50;1.00;;;;;;5070319;28;20524;-76
2021/06/28 08:17:24;;;;;;;8.10;7.17;;;27.80;1.00;;;;;;5063437;28;20414;-76
2021/06/28 08:19:51;;;;;;;7.07;6.47;;;28.00;1.00;;;;;;5079927;28;20421;-74
2021/06/28 08:22:18;;;;;;;7.50;6.80;;;28.20;1.00;;;;;;5073610;28;20452;-76
2021/06/28 08:24:45;;;;;;;7.87;7.17;;;28.30;1.00;;;;;;5080214;28;20444;-75
2021/06/28 08:27:12;;;;;;;8.03;7.33;;;28.50;1.00;;;;;;5071627;28;20668;-76
2021/06/28 08:29:41;;;;;;;7.80;6.57;;;28.60;1.00;;;;;;5081512;28;20449;-76
2021/06/28 08:32:08;;;;;;;6.20;5.80;;;28.60;1.00;;;;;;5070988;28;20572;-76
2021/06/28 08:34:36;;;;;;;6.90;6.27;;;28.70;1.00;;;;;;5073031;28;20459;-77
2021/06/28 08:37:03;;;;;;;7.80;6.17;;;28.70;1.00;;;;;;5072284;28;20483;-76
2021/06/28 08:39:30;;;;;;;7.80;7.10;;;28.80;1.00;;;;;;5075588;28;21386;-77
2021/06/28 08:41:58;;;;;;;7.07;6.47;;;28.90;1.00;;;;;;5079728;28;20931;-76
2021/06/28 08:44:25;;;;;;;5.93;5.53;;;29.00;1.00;;;;;;5069602;28;20458;-76
2021/06/28 08:46:51;;;;;;;6.60;6.00;;;29.10;1.00;;;;;;5077425;28;20536;-76
2021/06/28 08:49:18;;;;;;;6.70;6.10;;;29.10;1.00;;;;;;5074938;28;20545;-76
2021/06/28 08:51:46;;;;;;;5.60;5.20;;;29.10;1.00;;;;;;5070645;28;20477;-77
2021/06/28 08:54:14;;;;;;;5.50;5.10;;;29.20;1.00;;;;;;5064485;28;20463;-76
2021/06/28 08:56:43;;;;;;;5.60;5.17;;;29.30;1.00;;;;;;5074055;28;20476;-76
2021/06/28 08:59:10;;;;;;;6.13;5.27;;;29.40;1.00;;;;;;5063530;28;20470;-75
2021/06/28 09:01:38;;;;;;;5.90;5.47;;;29.50;1.00;;;;;;5068634;28;20450;-75
2021/06/28 09:04:08;;;;;;;6.57;4.87;;;29.50;1.00;;;;;;5068411;28;21309;-76
2021/06/28 09:06:36;;;;;;;6.17;5.67;;;29.50;1.00;;;;;;5067160;28;20425;-76
2021/06/28 09:09:07;;;;;;;6.90;6.30;;;29.70;1.00;;;;;;5061114;28;20472;-76
2021/06/28 09:11:36;;;;;;;4.90;4.60;;;29.90;1.00;;;;;;5062655;28;20605;-76
2021/06/28 09:14:05;;;;;;;5.60;5.10;;;30.20;1.00;;;;;;5063036;28;20456;-76
2021/06/28 09:16:33;;;;;;;6.53;5.83;;;30.20;1.00;;;;;;5062995;28;20464;-75
2021/06/28 09:19:02;;;;;;;5.37;4.97;;;30.20;1.00;;;;;;5067822;28;20528;-76
2021/06/28 09:21:38;;;;;;;6.10;5.67;;;30.30;1.00;;;;;;5065684;28;20472;-76
2021/06/28 09:24:09;;;;;;;5.70;5.20;;;30.50;1.00;;;;;;5067720;28;20464;-77
2021/06/28 09:26:38;;;;;;;6.27;5.67;;;30.80;1.00;;;;;;5063759;28;20447;-74
2021/06/28 09:29:08;;;;;;;4.87;4.57;;;30.90;1.00;;;;;;5074197;28;20516;-76
2021/06/28 09:31:41;;;;;;;5.67;5.10;;;31.00;1.00;;;;;;5063852;28;20495;-76
2021/06/28 09:34:14;;;;;;;5.30;5.00;;;31.00;1.00;;;;;;5074231;28;21281;-78
2021/06/28 09:36:48;;;;;;;6.00;5.57;;;30.90;1.00;;;;;;5071638;28;20458;-77
2021/06/28 09:39:21;;;;;;;6.00;5.50;;;31.00;1.00;;;;;;5062049;28;20573;-77
2021/06/28 09:41:48;;;;;;;6.93;5.93;;;31.10;1.00;;;;;;5075526;28;20463;-76
2021/06/28 09:44:15;;;;;;;9.00;6.23;;;31.70;1.00;;;;;;5065478;28;20458;-76
2021/06/28 09:46:42;;;;;;;5.17;4.77;;;32.70;1.00;;;;;;5073083;28;20439;-76
2021/06/28 09:49:17;;;;;;;5.53;5.03;;;33.50;1.00;;;;;;5066424;28;20463;-76
2021/06/28 09:51:43;;;;;;;7.83;5.80;;;34.80;1.00;;;;;;5073738;28;20938;-76
2021/06/28 09:54:21;;;;;;;4.57;4.17;;;36.10;1.00;;;;;;5062067;28;20943;-76
2021/06/28 09:56:50;;;;;;;4.73;4.33;;;36.90;1.00;;;;;;5070996;28;21243;-77
2021/06/28 09:59:38;;;;;;;5.50;4.67;;;37.60;1.00;;;;;;5068933;28;20482;-76
2021/06/28 10:02:14;;;;;;;6.20;5.73;;;38.20;1.00;;;;;;5060355;28;20451;-75
2021/06/28 10:04:45;;;;;;;5.70;5.30;;;38.60;1.00;;;;;;5068345;28;20989;-78
2021/06/28 10:07:29;;;;;;;6.40;5.90;;;39.10;1.00;;;;;;5063645;28;20430;-76
2021/06/28 10:10:22;;;;;;;6.20;5.60;;;39.30;1.00;;;;;;5069072;28;20443;-77
2021/06/28 10:13:04;;;;;;;5.90;5.50;;;39.20;1.00;;;;;;5063535;28;20444;-75
2021/06/28 10:15:33;;;;;;;5.20;4.90;;;39.80;1.00;;;;;;5068890;28;20463;-77
2021/06/28 10:18:00;;;;;;;6.10;5.60;;;40.30;1.00;;;;;;5065695;28;20458;-75
2021/06/28 10:20:29;;;;;;;6.67;6.17;;;40.30;1.00;;;;;;5067092;28;21701;-78
2021/06/28 10:22:56;;;;;;;5.97;5.57;;;39.50;1.00;;;;;;5067836;28;20969;-76
2021/06/28 10:25:26;;;;;;;6.40;5.90;;;39.70;1.00;;;;;;5062933;28;20448;-77
2021/06/28 10:27:54;;;;;;;5.90;5.50;;;40.30;1.00;;;;;;5071384;28;20431;-76
2021/06/28 10:30:23;;;;;;;6.43;5.83;;;40.30;1.00;;;;;;5064926;28;21100;-76
2021/06/28 10:32:56;;;;;;;7.80;6.40;;;39.80;1.00;;;;;;5069496;28;20533;-77
2021/06/28 10:35:27;;;;;;;4.47;4.13;;;40.00;1.00;;;;;;5063722;28;20470;-77
2021/06/28 10:37:54;;;;;;;12.10;11.10;;;40.60;1.00;;;;;;5080159;28;21705;-77
2021/06/28 10:40:22;;;;;;;5.13;4.73;;;40.70;1.00;;;;;;5061568;28;20452;-76
2021/06/28 10:42:52;;;;;;;5.23;4.80;;;40.40;1.00;;;;;;5068550;28;20463;-76
2021/06/28 10:45:38;;;;;;;5.13;4.70;;;40.30;1.00;;;;;;5067937;28;20464;-76
2021/06/28 10:48:10;;;;;;;6.07;5.50;;;41.30;1.00;;;;;;5061690;28;21082;-76
2021/06/28 10:50:50;;;;;;;5.03;4.67;;;41.70;1.00;;;;;;5073008;28;20571;-76
2021/06/28 10:53:17;;;;;;;4.00;3.80;;;42.00;1.00;;;;;;5056963;28;22218;-75
2021/06/28 10:55:44;;;;;;;5.70;5.20;;;42.20;1.00;;;;;;5069254;28;20468;-76
2021/06/28 10:58:33;;;;;;;5.30;4.80;;;42.60;1.00;;;;;;5059857;28;20448;-74
2021/06/28 11:01:06;;;;;;;4.67;4.37;;;43.00;1.00;;;;;;5062114;28;20455;-76
2021/06/28 11:03:34;;;;;;;4.53;4.23;;;42.00;1.00;;;;;;5065864;28;20634;-76
2021/06/28 11:06:25;;;;;;;4.67;4.37;;;40.90;1.00;;;;;;5067804;28;20460;-77
2021/06/28 11:09:05;;;;;;;4.40;4.00;;;41.10;1.00;;;;;;5073715;28;21282;-76
2021/06/28 11:11:54;;;;;;;4.73;4.43;;;41.60;1.00;;;;;;5063744;28;20465;-76
2021/06/28 11:14:46;;;;;;;4.60;4.30;;;41.30;1.00;;;;;;5069278;28;20550;-77
2021/06/28 11:17:16;;;;;;;4.87;4.47;;;39.40;1.00;;;;;;5068657;28;20423;-76
2021/06/28 11:19:53;;;;;;;5.77;4.07;;;38.50;1.00;;;;;;5064179;28;20451;-74
2021/06/28 11:22:44;;;;;;;4.80;4.50;;;37.90;1.00;;;;;;5064058;28;20447;-74
2021/06/28 11:25:16;;;;;;;4.90;4.50;;;37.30;1.00;;;;;;5064264;28;20451;-77
2021/06/28 11:27:45;;;;;;;11.73;10.93;;;36.60;1.00;;;;;;5070291;28;20465;-76
2021/06/28 11:30:21;;;;;;;4.40;4.10;;;35.90;1.00;;;;;;5062646;28;20461;-76
2021/06/28 11:33:00;;;;;;;4.97;4.60;;;35.50;1.00;;;;;;5070202;28;21328;-76
2021/06/28 11:35:45;;;;;;;5.00;4.60;;;35.20;1.00;;;;;;5062354;28;20506;-77
2021/06/28 11:38:24;;;;;;;5.37;4.80;;;35.00;1.00;;;;;;5064719;28;20467;-76
2021/06/28 11:40:54;;;;;;;4.60;4.30;;;34.40;1.00;;;;;;5071255;28;20466;-76
2021/06/28 11:43:41;;;;;;;5.17;3.93;;;34.20;1.00;;;;;;5067286;28;20631;-77
2021/06/28 11:46:11;;;;;;;4.73;4.37;;;34.30;1.00;;;;;;5079444;28;20411;-75
2021/06/28 11:48:39;;;;;;;5.30;4.90;;;34.20;1.00;;;;;;5071458;28;20463;-77
2021/06/28 11:51:16;;;;;;;4.27;3.97;;;34.20;1.00;;;;;;5076231;28;20444;-76
2021/06/28 11:53:44;;;;;;;4.53;4.23;;;34.40;1.00;;;;;;5067750;28;20556;-76
2021/06/28 11:56:20;;;;;;;4.50;4.10;;;34.50;1.00;;;;;;5065838;28;21125;-76
2021/06/28 11:58:55;;;;;;;4.17;3.77;;;34.70;1.00;;;;;;5065513;28;20446;-77
2021/06/28 12:01:24;;;;;;;4.13;3.83;;;34.90;1.00;;;;;;5063347;28;20526;-76
2021/06/28 12:03:51;;;;;;;4.10;3.77;;;35.20;1.00;;;;;;5067658;28;20440;-77
2021/06/28 12:06:18;;;;;;;5.60;5.20;;;35.50;1.00;;;;;;5055752;28;20528;-76
2021/06/28 12:08:44;;;;;;;4.33;3.97;;;35.60;1.00;;;;;;5071523;28;20459;-76
2021/06/28 12:11:12;;;;;;;4.23;3.90;;;35.50;1.00;;;;;;5062012;28;20439;-77
2021/06/28 12:13:40;;;;;;;4.43;4.13;;;35.30;1.00;;;;;;5064399;28;20439;-77
2021/06/28 12:16:22;;;;;;;4.53;4.23;;;35.40;1.00;;;;;;5065625;28;21042;-77
2021/06/28 12:19:00;;;;;;;7.03;5.13;;;35.60;1.00;;;;;;5061247;28;20451;-77
2021/06/28 12:21:29;;;;;;;4.40;4.10;;;36.60;1.00;;;;;;5060877;28;20426;-77
2021/06/28 12:24:04;;;;;;;3.97;3.67;;;38.40;1.00;;;;;;5062647;28;20441;-77
2021/06/28 12:26:31;;;;;;;5.57;4.67;;;39.80;1.00;;;;;;5062604;28;20454;-77
2021/06/28 12:28:58;;;;;;;4.07;3.73;;;41.10;1.00;;;;;;5062960;28;20546;-77
2021/06/28 12:31:24;;;;;;;4.57;4.17;;;41.70;1.00;;;;;;5065360;28;20489;-77
2021/06/28 12:33:56;;;;;;;5.20;4.00;;;40.90;1.00;;;;;;5060654;28;20443;-78
2021/06/28 12:36:22;;;;;;;4.23;3.93;;;40.40;1.00;;;;;;5065615;28;20466;-77
2021/06/28 12:38:58;;;;;;;4.60;4.20;;;40.20;1.00;;;;;;5059542;28;20557;-76
2021/06/28 12:41:26;;;;;;;4.20;3.90;;;40.40;1.00;;;;;;5061899;28;20428;-77
2021/06/28 12:43:53;;;;;;;4.30;3.90;;;39.70;1.00;;;;;;5068716;28;20463;-76
2021/06/28 12:46:20;;;;;;;4.27;3.87;;;39.40;1.00;;;;;;5067373;28;20458;-76
2021/06/28 12:48:47;;;;;;;6.00;5.50;;;39.30;1.00;;;;;;5060413;28;20943;-77
2021/06/28 12:51:21;;;;;;;3.67;3.47;;;39.70;1.00;;;;;;5064593;28;20439;-77
2021/06/28 12:53:49;;;;;;;4.10;3.80;;;40.60;1.00;;;;;;5071270;28;20424;-78
2021/06/28 12:56:17;;;;;;;5.10;4.27;;;41.50;1.00;;;;;;5066391;28;20569;-77
2021/06/28 12:58:46;;;;;;;4.63;4.33;;;42.30;1.00;;;;;;5069442;28;21365;-77
2021/06/28 13:01:29;;;;;;;7.80;7.20;;;43.20;1.00;;;;;;5064049;28;20437;-78